sensor_id;sensor_type;location;lat;lon;timestamp;temperature;humidity
67547;HTU21D;54381;53.516;49.424;2022-09-17T00:01:51;14.38;97.77
67547;HTU21D;54381;53.516;49.424;2022-09-17T00:04:17;14.39;97.95
67547;HTU21D;54381;53.516;49.424;2022-09-17T00:06:44;14.41;97.84
67547;HTU21D;54381;53.516;49.424;2022-09-17T00:09:10;14.39;98.10
67547;HTU21D;54381;53.516;49.424;2022-09-17T00:11:40;14.42;97.97
67547;HTU21D;54381;53.516;49.424;2022-09-17T00:14:07;14.45;97.84
67547;HTU21D;54381;53.516;49.424;2022-09-17T00:16:36;14.44;97.83
67547;HTU21D;54381;53.516;49.424;2022-09-17T00:19:04;14.43;98.05
67547;HTU21D;54381;53.516;49.424;2022-09-17T00:21:33;14.45;98.09
67547;HTU21D;54381;53.516;49.424;2022-09-17T00:24:02;14.43;98.13
67547;HTU21D;54381;53.516;49.424;2022-09-17T00:26:29;14.42;98.23
67547;HTU21D;54381;53.516;49.424;2022-09-17T00:28:58;14.42;98.32
67547;HTU21D;54381;53.516;49.424;2022-09-17T00:31:26;14.42;98.30
67547;HTU21D;54381;53.516;49.424;2022-09-17T00:33:52;14.40;98.43
67547;HTU21D;54381;53.516;49.424;2022-09-17T00:36:19;14.42;98.45
67547;HTU21D;54381;53.516;49.424;2022-09-17T00:38:52;14.44;98.33
67547;HTU21D;54381;53.516;49.424;2022-09-17T00:41:22;14.45;98.34
67547;HTU21D;54381;53.516;49.424;2022-09-17T00:43:54;14.47;98.15
67547;HTU21D;54381;53.516;49.424;2022-09-17T00:46:42;14.49;98.12
67547;HTU21D;54381;53.516;49.424;2022-09-17T00:51:58;14.48;98.06
67547;HTU21D;54381;53.516;49.424;2022-09-17T00:54:27;14.42;98.44
67547;HTU21D;54381;53.516;49.424;2022-09-17T00:56:53;14.41;98.48
67547;HTU21D;54381;53.516;49.424;2022-09-17T00:59:20;14.41;98.52
67547;HTU21D;54381;53.516;49.424;2022-09-17T01:01:48;14.40;98.76
67547;HTU21D;54381;53.516;49.424;2022-09-17T01:04:19;14.45;98.57
67547;HTU21D;54381;53.516;49.424;2022-09-17T01:07:09;14.50;98.37
67547;HTU21D;54381;53.516;49.424;2022-09-17T01:09:47;14.50;98.15
67547;HTU21D;54381;53.516;49.424;2022-09-17T01:33:40;14.45;99.09
67547;HTU21D;54381;53.516;49.424;2022-09-17T01:39:31;14.47;99.38
67547;HTU21D;54381;53.516;49.424;2022-09-17T01:42:24;14.43;99.73
67547;HTU21D;54381;53.516;49.424;2022-09-17T01:45:05;14.44;99.88
67547;HTU21D;54381;53.516;49.424;2022-09-17T01:47:51;14.47;99.84
67547;HTU21D;54381;53.516;49.424;2022-09-17T01:50:26;14.48;99.86
67547;HTU21D;54381;53.516;49.424;2022-09-17T01:52:54;14.48;99.92
67547;HTU21D;54381;53.516;49.424;2022-09-17T01:55:24;14.53;99.85
67547;HTU21D;54381;53.516;49.424;2022-09-17T01:57:56;14.53;99.67
67547;HTU21D;54381;53.516;49.424;2022-09-17T02:00:23;14.55;99.62
67547;HTU21D;54381;53.516;49.424;2022-09-17T02:08:48;14.57;99.26
67547;HTU21D;54381;53.516;49.424;2022-09-17T02:11:17;14.59;99.37
67547;HTU21D;54381;53.516;49.424;2022-09-17T02:13:58;14.60;99.24
67547;HTU21D;54381;53.516;49.424;2022-09-17T02:16:31;14.58;99.42
67547;HTU21D;54381;53.516;49.424;2022-09-17T02:27:23;14.66;99.04
67547;HTU21D;54381;53.516;49.424;2022-09-17T02:29:54;14.63;99.09
67547;HTU21D;54381;53.516;49.424;2022-09-17T02:32:20;14.65;99.16
67547;HTU21D;54381;53.516;49.424;2022-09-17T02:34:47;14.69;99.00
67547;HTU21D;54381;53.516;49.424;2022-09-17T02:37:13;14.72;98.80
67547;HTU21D;54381;53.516;49.424;2022-09-17T02:39:39;14.75;98.67
67547;HTU21D;54381;53.516;49.424;2022-09-17T02:45:06;14.77;98.61
67547;HTU21D;54381;53.516;49.424;2022-09-17T02:48:38;14.78;98.64
67547;HTU21D;54381;53.516;49.424;2022-09-17T02:51:10;14.81;98.48
67547;HTU21D;54381;53.516;49.424;2022-09-17T02:53:55;14.83;98.44
67547;HTU21D;54381;53.516;49.424;2022-09-17T02:59:07;14.88;98.19
67547;HTU21D;54381;53.516;49.424;2022-09-17T03:01:45;14.93;98.00
67547;HTU21D;54381;53.516;49.424;2022-09-17T03:04:14;14.97;97.79
67547;HTU21D;54381;53.516;49.424;2022-09-17T03:06:44;15.01;97.56
67547;HTU21D;54381;53.516;49.424;2022-09-17T03:09:11;15.01;97.52
67547;HTU21D;54381;53.516;49.424;2022-09-17T03:11:37;15.00;97.61
67547;HTU21D;54381;53.516;49.424;2022-09-17T03:14:03;15.02;97.72
67547;HTU21D;54381;53.516;49.424;2022-09-17T03:16:29;15.03;97.57
67547;HTU21D;54381;53.516;49.424;2022-09-17T03:18:55;15.01;97.72
67547;HTU21D;54381;53.516;49.424;2022-09-17T03:21:21;15.02;97.70
67547;HTU21D;54381;53.516;49.424;2022-09-17T03:23:47;15.01;97.66
67547;HTU21D;54381;53.516;49.424;2022-09-17T03:26:13;15.03;97.65
67547;HTU21D;54381;53.516;49.424;2022-09-17T03:28:39;15.06;97.65
67547;HTU21D;54381;53.516;49.424;2022-09-17T03:31:05;15.06;97.76
67547;HTU21D;54381;53.516;49.424;2022-09-17T03:33:32;15.10;97.53
67547;HTU21D;54381;53.516;49.424;2022-09-17T03:35:58;15.11;97.43
67547;HTU21D;54381;53.516;49.424;2022-09-17T03:38:24;15.14;97.48
67547;HTU21D;54381;53.516;49.424;2022-09-17T03:41:00;15.16;97.33
67547;HTU21D;54381;53.516;49.424;2022-09-17T03:43:27;15.19;97.16
67547;HTU21D;54381;53.516;49.424;2022-09-17T03:45:53;15.14;97.24
67547;HTU21D;54381;53.516;49.424;2022-09-17T03:48:20;15.11;97.48
67547;HTU21D;54381;53.516;49.424;2022-09-17T03:50:46;15.09;97.72
67547;HTU21D;54381;53.516;49.424;2022-09-17T03:53:12;15.09;97.97
67547;HTU21D;54381;53.516;49.424;2022-09-17T03:55:38;15.09;98.24
67547;HTU21D;54381;53.516;49.424;2022-09-17T03:58:05;15.08;98.32
67547;HTU21D;54381;53.516;49.424;2022-09-17T04:00:31;15.09;98.39
67547;HTU21D;54381;53.516;49.424;2022-09-17T04:02:58;15.11;98.34
67547;HTU21D;54381;53.516;49.424;2022-09-17T04:05:24;15.15;98.41
67547;HTU21D;54381;53.516;49.424;2022-09-17T04:07:50;15.21;98.45
67547;HTU21D;54381;53.516;49.424;2022-09-17T04:10:16;15.25;98.07
67547;HTU21D;54381;53.516;49.424;2022-09-17T04:12:43;15.33;97.87
67547;HTU21D;54381;53.516;49.424;2022-09-17T04:15:09;15.42;97.61
67547;HTU21D;54381;53.516;49.424;2022-09-17T04:17:35;15.54;96.80
67547;HTU21D;54381;53.516;49.424;2022-09-17T04:20:03;15.63;96.07
67547;HTU21D;54381;53.516;49.424;2022-09-17T04:22:31;15.76;95.69
67547;HTU21D;54381;53.516;49.424;2022-09-17T04:24:57;15.90;95.43
67547;HTU21D;54381;53.516;49.424;2022-09-17T04:27:23;15.95;94.39
67547;HTU21D;54381;53.516;49.424;2022-09-17T04:29:49;16.04;94.31
67547;HTU21D;54381;53.516;49.424;2022-09-17T04:32:15;16.11;93.86
67547;HTU21D;54381;53.516;49.424;2022-09-17T04:34:41;16.22;93.49
67547;HTU21D;54381;53.516;49.424;2022-09-17T04:37:07;16.42;92.80
67547;HTU21D;54381;53.516;49.424;2022-09-17T04:39:34;16.71;91.53
67547;HTU21D;54381;53.516;49.424;2022-09-17T04:42:00;17.39;87.65
67547;HTU21D;54381;53.516;49.424;2022-09-17T04:44:26;19.39;79.04
67547;HTU21D;54381;53.516;49.424;2022-09-17T04:46:52;22.28;66.36
67547;HTU21D;54381;53.516;49.424;2022-09-17T04:49:18;21.98;66.74
67547;HTU21D;54381;53.516;49.424;2022-09-17T04:51:44;20.63;72.40
67547;HTU21D;54381;53.516;49.424;2022-09-17T04:54:11;19.67;76.70
67547;HTU21D;54381;53.516;49.424;2022-09-17T04:56:37;19.03;78.69
67547;HTU21D;54381;53.516;49.424;2022-09-17T04:59:03;18.72;80.10
67547;HTU21D;54381;53.516;49.424;2022-09-17T05:01:29;19.32;78.39
67547;HTU21D;54381;53.516;49.424;2022-09-17T05:03:55;20.27;74.30
67547;HTU21D;54381;53.516;49.424;2022-09-17T05:06:21;20.71;71.52
67547;HTU21D;54381;53.516;49.424;2022-09-17T05:08:47;19.97;74.92
67547;HTU21D;54381;53.516;49.424;2022-09-17T05:11:13;19.35;78.31
67547;HTU21D;54381;53.516;49.424;2022-09-17T05:13:39;18.92;79.92
67547;HTU21D;54381;53.516;49.424;2022-09-17T05:16:06;18.52;81.72
67547;HTU21D;54381;53.516;49.424;2022-09-17T05:18:32;18.36;82.59
67547;HTU21D;54381;53.516;49.424;2022-09-17T05:20:58;18.13;82.87
67547;HTU21D;54381;53.516;49.424;2022-09-17T05:23:24;18.06;83.82
67547;HTU21D;54381;53.516;49.424;2022-09-17T05:25:50;18.00;83.07
67547;HTU21D;54381;53.516;49.424;2022-09-17T05:28:17;17.94;83.65
67547;HTU21D;54381;53.516;49.424;2022-09-17T05:30:43;17.77;83.83
67547;HTU21D;54381;53.516;49.424;2022-09-17T05:33:10;17.69;84.56
67547;HTU21D;54381;53.516;49.424;2022-09-17T05:35:36;17.81;84.34
67547;HTU21D;54381;53.516;49.424;2022-09-17T05:38:04;17.83;83.88
67547;HTU21D;54381;53.516;49.424;2022-09-17T05:40:31;17.84;84.10
67547;HTU21D;54381;53.516;49.424;2022-09-17T05:43:04;17.88;84.39
67547;HTU21D;54381;53.516;49.424;2022-09-17T05:45:32;17.94;83.99
67547;HTU21D;54381;53.516;49.424;2022-09-17T05:48:00;18.04;83.74
67547;HTU21D;54381;53.516;49.424;2022-09-17T05:50:28;18.26;81.52
67547;HTU21D;54381;53.516;49.424;2022-09-17T05:52:55;18.26;81.92
67547;HTU21D;54381;53.516;49.424;2022-09-17T05:55:24;18.23;81.77
67547;HTU21D;54381;53.516;49.424;2022-09-17T05:57:52;18.30;81.54
67547;HTU21D;54381;53.516;49.424;2022-09-17T06:00:19;18.38;81.13
67547;HTU21D;54381;53.516;49.424;2022-09-17T06:02:45;18.44;80.78
67547;HTU21D;54381;53.516;49.424;2022-09-17T06:05:11;18.46;80.38
67547;HTU21D;54381;53.516;49.424;2022-09-17T06:07:38;18.39;80.98
67547;HTU21D;54381;53.516;49.424;2022-09-17T06:10:05;18.32;81.24
67547;HTU21D;54381;53.516;49.424;2022-09-17T06:12:31;18.14;81.09
67547;HTU21D;54381;53.516;49.424;2022-09-17T06:15:00;18.02;81.88
67547;HTU21D;54381;53.516;49.424;2022-09-17T06:17:27;17.92;82.26
67547;HTU21D;54381;53.516;49.424;2022-09-17T06:19:53;17.96;82.95
67547;HTU21D;54381;53.516;49.424;2022-09-17T06:22:19;17.97;82.45
67547;HTU21D;54381;53.516;49.424;2022-09-17T06:24:45;17.98;81.96
67547;HTU21D;54381;53.516;49.424;2022-09-17T06:27:11;17.97;82.48
67547;HTU21D;54381;53.516;49.424;2022-09-17T06:29:37;17.93;82.41
67547;HTU21D;54381;53.516;49.424;2022-09-17T06:32:04;17.78;82.81
67547;HTU21D;54381;53.516;49.424;2022-09-17T06:34:33;17.72;83.67
67547;HTU21D;54381;53.516;49.424;2022-09-17T06:36:59;17.72;83.49
67547;HTU21D;54381;53.516;49.424;2022-09-17T06:39:26;17.76;83.99
67547;HTU21D;54381;53.516;49.424;2022-09-17T06:41:55;17.80;83.57
67547;HTU21D;54381;53.516;49.424;2022-09-17T06:44:21;17.85;83.19
67547;HTU21D;54381;53.516;49.424;2022-09-17T06:46:50;17.87;82.58
67547;HTU21D;54381;53.516;49.424;2022-09-17T06:49:17;17.95;83.23
67547;HTU21D;54381;53.516;49.424;2022-09-17T06:51:44;18.05;82.51
67547;HTU21D;54381;53.516;49.424;2022-09-17T06:54:10;18.20;82.09
67547;HTU21D;54381;53.516;49.424;2022-09-17T06:56:37;18.52;80.89
67547;HTU21D;54381;53.516;49.424;2022-09-17T06:59:03;18.92;79.65
67547;HTU21D;54381;53.516;49.424;2022-09-17T07:01:29;19.30;78.39
67547;HTU21D;54381;53.516;49.424;2022-09-17T07:03:55;19.61;76.62
67547;HTU21D;54381;53.516;49.424;2022-09-17T07:06:22;19.84;75.77
67547;HTU21D;54381;53.516;49.424;2022-09-17T07:08:48;20.06;73.44
67547;HTU21D;54381;53.516;49.424;2022-09-17T07:11:14;20.56;71.42
67547;HTU21D;54381;53.516;49.424;2022-09-17T07:13:43;21.11;69.74
67547;HTU21D;54381;53.516;49.424;2022-09-17T07:16:09;21.04;70.02
67547;HTU21D;54381;53.516;49.424;2022-09-17T07:18:35;20.88;70.18
67547;HTU21D;54381;53.516;49.424;2022-09-17T07:21:04;20.70;70.44
67547;HTU21D;54381;53.516;49.424;2022-09-17T07:23:33;20.46;70.68
67547;HTU21D;54381;53.516;49.424;2022-09-17T07:26:01;20.20;71.54
67547;HTU21D;54381;53.516;49.424;2022-09-17T07:28:31;19.77;73.22
67547;HTU21D;54381;53.516;49.424;2022-09-17T07:30:57;19.42;74.31
67547;HTU21D;54381;53.516;49.424;2022-09-17T07:33:25;19.24;76.32
67547;HTU21D;54381;53.516;49.424;2022-09-17T07:36:00;19.26;76.61
67547;HTU21D;54381;53.516;49.424;2022-09-17T07:38:30;19.88;74.32
67547;HTU21D;54381;53.516;49.424;2022-09-17T07:41:09;20.32;72.16
67547;HTU21D;54381;53.516;49.424;2022-09-17T07:43:37;20.19;73.12
67547;HTU21D;54381;53.516;49.424;2022-09-17T07:46:05;20.00;73.71
67547;HTU21D;54381;53.516;49.424;2022-09-17T07:48:34;19.90;74.96
67547;HTU21D;54381;53.516;49.424;2022-09-17T07:51:00;19.99;73.64
67547;HTU21D;54381;53.516;49.424;2022-09-17T07:53:26;19.91;73.92
67547;HTU21D;54381;53.516;49.424;2022-09-17T07:55:58;19.88;74.34
67547;HTU21D;54381;53.516;49.424;2022-09-17T07:58:32;19.79;74.00
67547;HTU21D;54381;53.516;49.424;2022-09-17T08:01:02;19.70;73.70
67547;HTU21D;54381;53.516;49.424;2022-09-17T08:03:29;19.63;73.97
67547;HTU21D;54381;53.516;49.424;2022-09-17T08:06:11;19.61;74.26
67547;HTU21D;54381;53.516;49.424;2022-09-17T08:08:42;19.66;74.78
67547;HTU21D;54381;53.516;49.424;2022-09-17T08:11:11;19.87;74.07
67547;HTU21D;54381;53.516;49.424;2022-09-17T08:13:37;19.80;73.30
67547;HTU21D;54381;53.516;49.424;2022-09-17T08:16:09;19.68;74.22
67547;HTU21D;54381;53.516;49.424;2022-09-17T08:18:36;19.96;73.61
67547;HTU21D;54381;53.516;49.424;2022-09-17T08:21:04;20.42;72.07
67547;HTU21D;54381;53.516;49.424;2022-09-17T08:23:32;20.64;71.70
67547;HTU21D;54381;53.516;49.424;2022-09-17T08:25:59;20.77;70.67
67547;HTU21D;54381;53.516;49.424;2022-09-17T08:28:29;21.25;68.42
67547;HTU21D;54381;53.516;49.424;2022-09-17T08:31:01;21.59;67.74
67547;HTU21D;54381;53.516;49.424;2022-09-17T08:33:30;21.70;66.65
67547;HTU21D;54381;53.516;49.424;2022-09-17T08:35:57;21.92;66.34
67547;HTU21D;54381;53.516;49.424;2022-09-17T08:38:28;21.69;66.21
67547;HTU21D;54381;53.516;49.424;2022-09-17T08:43:33;21.72;65.99
67547;HTU21D;54381;53.516;49.424;2022-09-17T08:46:00;21.62;66.58
67547;HTU21D;54381;53.516;49.424;2022-09-17T08:48:33;21.63;65.68
67547;HTU21D;54381;53.516;49.424;2022-09-17T08:51:12;21.18;66.91
67547;HTU21D;54381;53.516;49.424;2022-09-17T08:54:06;20.94;66.72
67547;HTU21D;54381;53.516;49.424;2022-09-17T08:56:35;20.87;66.97
67547;HTU21D;54381;53.516;49.424;2022-09-17T08:59:48;20.96;68.65
67547;HTU21D;54381;53.516;49.424;2022-09-17T09:01:57;21.36;65.84
67547;HTU21D;54381;53.516;49.424;2022-09-17T09:07:37;21.47;66.11
67547;HTU21D;54381;53.516;49.424;2022-09-17T09:10:13;21.21;67.11
67547;HTU21D;54381;53.516;49.424;2022-09-17T09:12:42;21.22;67.39
67547;HTU21D;54381;53.516;49.424;2022-09-17T09:18:00;20.78;69.27
67547;HTU21D;54381;53.516;49.424;2022-09-17T09:20:39;20.81;68.65
67547;HTU21D;54381;53.516;49.424;2022-09-17T09:23:29;20.83;69.35
67547;HTU21D;54381;53.516;49.424;2022-09-17T09:26:15;21.07;67.88
67547;HTU21D;54381;53.516;49.424;2022-09-17T09:34:12;21.10;67.79
67547;HTU21D;54381;53.516;49.424;2022-09-17T09:36:39;21.34;66.35
67547;HTU21D;54381;53.516;49.424;2022-09-17T09:42:04;20.78;67.94
67547;HTU21D;54381;53.516;49.424;2022-09-17T09:44:34;20.37;69.75
67547;HTU21D;54381;53.516;49.424;2022-09-17T09:50:41;20.99;68.46
67547;HTU21D;54381;53.516;49.424;2022-09-17T09:53:25;21.21;68.10
67547;HTU21D;54381;53.516;49.424;2022-09-17T09:56:00;21.10;68.45
67547;HTU21D;54381;53.516;49.424;2022-09-17T09:58:34;20.61;70.20
67547;HTU21D;54381;53.516;49.424;2022-09-17T10:01:02;20.32;71.62
67547;HTU21D;54381;53.516;49.424;2022-09-17T10:03:31;20.24;72.11
67547;HTU21D;54381;53.516;49.424;2022-09-17T10:06:08;20.16;72.37
67547;HTU21D;54381;53.516;49.424;2022-09-17T10:08:37;19.96;72.85
67547;HTU21D;54381;53.516;49.424;2022-09-17T10:11:15;19.80;73.34
67547;HTU21D;54381;53.516;49.424;2022-09-17T10:13:43;19.72;73.95
67547;HTU21D;54381;53.516;49.424;2022-09-17T10:16:15;19.67;75.06
67547;HTU21D;54381;53.516;49.424;2022-09-17T10:18:42;19.52;74.96
67547;HTU21D;54381;53.516;49.424;2022-09-17T10:21:33;19.41;75.59
67547;HTU21D;54381;53.516;49.424;2022-09-17T10:24:02;19.23;75.92
67547;HTU21D;54381;53.516;49.424;2022-09-17T10:26:32;18.99;77.17
67547;HTU21D;54381;53.516;49.424;2022-09-17T10:29:03;18.79;78.37
67547;HTU21D;54381;53.516;49.424;2022-09-17T10:31:51;18.76;79.27
67547;HTU21D;54381;53.516;49.424;2022-09-17T10:34:31;18.79;79.18
67547;HTU21D;54381;53.516;49.424;2022-09-17T10:36:58;18.84;79.90
67547;HTU21D;54381;53.516;49.424;2022-09-17T10:39:31;18.89;80.63
67547;HTU21D;54381;53.516;49.424;2022-09-17T10:42:04;18.77;80.23
67547;HTU21D;54381;53.516;49.424;2022-09-17T10:44:33;18.69;80.37
67547;HTU21D;54381;53.516;49.424;2022-09-17T10:47:12;18.50;81.20
67547;HTU21D;54381;53.516;49.424;2022-09-17T10:49:43;18.35;82.55
67547;HTU21D;54381;53.516;49.424;2022-09-17T10:52:11;18.20;83.92
67547;HTU21D;54381;53.516;49.424;2022-09-17T10:54:50;18.08;85.08
67547;HTU21D;54381;53.516;49.424;2022-09-17T11:00:09;17.89;86.52
67547;HTU21D;54381;53.516;49.424;2022-09-17T11:08:23;17.69;87.87
67547;HTU21D;54381;53.516;49.424;2022-09-17T11:10:57;17.65;88.16
67547;HTU21D;54381;53.516;49.424;2022-09-17T11:13:47;17.55;88.18
67547;HTU21D;54381;53.516;49.424;2022-09-17T11:19:18;17.39;89.24
67547;HTU21D;54381;53.516;49.424;2022-09-17T11:22:06;17.37;89.70
67547;HTU21D;54381;53.516;49.424;2022-09-17T11:24:52;17.29;90.61
67547;HTU21D;54381;53.516;49.424;2022-09-17T11:30:22;17.28;92.05
67547;HTU21D;54381;53.516;49.424;2022-09-17T11:35:37;17.14;93.07
67547;HTU21D;54381;53.516;49.424;2022-09-17T11:38:38;17.10;93.96
67547;HTU21D;54381;53.516;49.424;2022-09-17T11:41:13;17.17;93.60
67547;HTU21D;54381;53.516;49.424;2022-09-17T11:43:46;17.17;92.59
67547;HTU21D;54381;53.516;49.424;2022-09-17T11:46:27;17.11;92.91
67547;HTU21D;54381;53.516;49.424;2022-09-17T11:48:57;17.16;92.64
67547;HTU21D;54381;53.516;49.424;2022-09-17T11:51:36;17.23;92.17
67547;HTU21D;54381;53.516;49.424;2022-09-17T11:54:25;17.22;92.41
67547;HTU21D;54381;53.516;49.424;2022-09-17T11:57:03;17.20;92.79
67547;HTU21D;54381;53.516;49.424;2022-09-17T12:00:11;17.20;92.45
67547;HTU21D;54381;53.516;49.424;2022-09-17T12:02:46;17.29;93.04
67547;HTU21D;54381;53.516;49.424;2022-09-17T12:05:25;17.35;92.27
67547;HTU21D;54381;53.516;49.424;2022-09-17T12:15:41;17.66;91.17
67547;HTU21D;54381;53.516;49.424;2022-09-17T12:20:51;17.62;91.50
67547;HTU21D;54381;53.516;49.424;2022-09-17T12:23:27;17.72;91.13
67547;HTU21D;54381;53.516;49.424;2022-09-17T12:40:11;18.26;89.01
67547;HTU21D;54381;53.516;49.424;2022-09-17T12:51:22;17.82;90.62
67547;HTU21D;54381;53.516;49.424;2022-09-17T12:54:04;17.64;90.28
67547;HTU21D;54381;53.516;49.424;2022-09-17T12:59:03;17.69;91.89
67547;HTU21D;54381;53.516;49.424;2022-09-17T13:01:43;17.81;90.96
67547;HTU21D;54381;53.516;49.424;2022-09-17T13:18:26;17.65;90.66
67547;HTU21D;54381;53.516;49.424;2022-09-17T13:23:36;17.50;93.21
67547;HTU21D;54381;53.516;49.424;2022-09-17T13:26:07;17.45;92.46
67547;HTU21D;54381;53.516;49.424;2022-09-17T13:28:39;17.38;93.22
67547;HTU21D;54381;53.516;49.424;2022-09-17T13:31:09;17.39;93.15
67547;HTU21D;54381;53.516;49.424;2022-09-17T13:33:49;17.37;93.50
67547;HTU21D;54381;53.516;49.424;2022-09-17T13:36:38;17.34;93.78
67547;HTU21D;54381;53.516;49.424;2022-09-17T13:39:31;17.33;94.01
67547;HTU21D;54381;53.516;49.424;2022-09-17T13:42:17;17.22;94.47
67547;HTU21D;54381;53.516;49.424;2022-09-17T13:45:15;17.19;94.42
67547;HTU21D;54381;53.516;49.424;2022-09-17T13:47:56;17.21;94.41
67547;HTU21D;54381;53.516;49.424;2022-09-17T13:50:34;17.21;94.14
67547;HTU21D;54381;53.516;49.424;2022-09-17T14:00:56;17.15;94.88
67547;HTU21D;54381;53.516;49.424;2022-09-17T14:08:46;17.30;94.45
67547;HTU21D;54381;53.516;49.424;2022-09-17T14:27:20;17.08;94.70
67547;HTU21D;54381;53.516;49.424;2022-09-17T14:32:39;16.96;95.52
67547;HTU21D;54381;53.516;49.424;2022-09-17T14:38:23;16.88;96.01
67547;HTU21D;54381;53.516;49.424;2022-09-17T14:40:59;16.82;96.20
67547;HTU21D;54381;53.516;49.424;2022-09-17T14:43:51;16.77;96.61
67547;HTU21D;54381;53.516;49.424;2022-09-17T14:46:39;16.71;96.97
67547;HTU21D;54381;53.516;49.424;2022-09-17T14:51:51;16.62;97.41
67547;HTU21D;54381;53.516;49.424;2022-09-17T14:54:25;16.59;97.36
67547;HTU21D;54381;53.516;49.424;2022-09-17T14:57:22;16.54;97.55
67547;HTU21D;54381;53.516;49.424;2022-09-17T14:59:54;16.50;97.55
67547;HTU21D;54381;53.516;49.424;2022-09-17T15:02:38;16.44;97.67
67547;HTU21D;54381;53.516;49.424;2022-09-17T15:05:26;16.39;98.00
67547;HTU21D;54381;53.516;49.424;2022-09-17T15:08:15;16.36;97.99
67547;HTU21D;54381;53.516;49.424;2022-09-17T15:10:56;16.33;98.12
67547;HTU21D;54381;53.516;49.424;2022-09-17T15:13:29;16.29;98.35
67547;HTU21D;54381;53.516;49.424;2022-09-17T15:16:16;16.26;98.54
67547;HTU21D;54381;53.516;49.424;2022-09-17T15:26:41;16.14;98.63
67547;HTU21D;54381;53.516;49.424;2022-09-17T15:29:11;16.10;98.75
67547;HTU21D;54381;53.516;49.424;2022-09-17T15:31:38;16.07;98.79
67547;HTU21D;54381;53.516;49.424;2022-09-17T15:34:04;16.04;98.92
67547;HTU21D;54381;53.516;49.424;2022-09-17T15:36:30;16.03;98.97
67547;HTU21D;54381;53.516;49.424;2022-09-17T15:38:57;16.02;99.07
67547;HTU21D;54381;53.516;49.424;2022-09-17T15:41:33;15.98;99.21
67547;HTU21D;54381;53.516;49.424;2022-09-17T15:44:07;15.97;99.26
67547;HTU21D;54381;53.516;49.424;2022-09-17T15:46:33;15.97;99.14
67547;HTU21D;54381;53.516;49.424;2022-09-17T15:49:00;15.95;99.06
67547;HTU21D;54381;53.516;49.424;2022-09-17T15:51:32;15.93;99.06
67547;HTU21D;54381;53.516;49.424;2022-09-17T15:54:25;15.93;99.13
67547;HTU21D;54381;53.516;49.424;2022-09-17T15:56:52;15.89;99.19
67547;HTU21D;54381;53.516;49.424;2022-09-17T15:59:27;15.87;99.33
67547;HTU21D;54381;53.516;49.424;2022-09-17T16:01:59;15.85;99.53
67547;HTU21D;54381;53.516;49.424;2022-09-17T16:04:33;15.82;99.59
67547;HTU21D;54381;53.516;49.424;2022-09-17T16:07:26;15.77;99.77
67547;HTU21D;54381;53.516;49.424;2022-09-17T16:09:53;15.75;99.93
67547;HTU21D;54381;53.516;49.424;2022-09-17T16:12:26;15.73;100.02
67547;HTU21D;54381;53.516;49.424;2022-09-17T16:14:56;15.70;100.11
67547;HTU21D;54381;53.516;49.424;2022-09-17T16:17:25;15.70;100.12
67547;HTU21D;54381;53.516;49.424;2022-09-17T16:19:58;15.68;100.13
67547;HTU21D;54381;53.516;49.424;2022-09-17T16:22:25;15.68;100.16
67547;HTU21D;54381;53.516;49.424;2022-09-17T16:24:54;15.68;100.03
67547;HTU21D;54381;53.516;49.424;2022-09-17T16:27:25;15.67;100.02
67547;HTU21D;54381;53.516;49.424;2022-09-17T16:29:59;15.66;100.06
67547;HTU21D;54381;53.516;49.424;2022-09-17T16:32:26;15.65;100.14
67547;HTU21D;54381;53.516;49.424;2022-09-17T16:34:52;15.63;100.25
67547;HTU21D;54381;53.516;49.424;2022-09-17T16:37:18;15.61;100.33
67547;HTU21D;54381;53.516;49.424;2022-09-17T16:39:44;15.61;100.40
67547;HTU21D;54381;53.516;49.424;2022-09-17T16:42:10;15.62;100.40
67547;HTU21D;54381;53.516;49.424;2022-09-17T16:44:37;15.61;100.29
67547;HTU21D;54381;53.516;49.424;2022-09-17T16:47:03;15.60;100.32
67547;HTU21D;54381;53.516;49.424;2022-09-17T16:49:29;15.59;100.34
67547;HTU21D;54381;53.516;49.424;2022-09-17T16:51:55;15.58;100.33
67547;HTU21D;54381;53.516;49.424;2022-09-17T16:54:21;15.58;100.29
67547;HTU21D;54381;53.516;49.424;2022-09-17T16:56:50;15.57;100.40
67547;HTU21D;54381;53.516;49.424;2022-09-17T16:59:17;15.58;100.38
67547;HTU21D;54381;53.516;49.424;2022-09-17T17:01:43;15.57;100.32
67547;HTU21D;54381;53.516;49.424;2022-09-17T17:04:09;15.54;100.23
67547;HTU21D;54381;53.516;49.424;2022-09-17T17:06:35;15.54;100.25
67547;HTU21D;54381;53.516;49.424;2022-09-17T17:09:01;15.53;100.19
67547;HTU21D;54381;53.516;49.424;2022-09-17T17:11:31;15.49;100.19
67547;HTU21D;54381;53.516;49.424;2022-09-17T17:13:57;15.46;100.18
67547;HTU21D;54381;53.516;49.424;2022-09-17T17:16:23;15.46;100.20
67547;HTU21D;54381;53.516;49.424;2022-09-17T17:18:50;15.45;100.30
67547;HTU21D;54381;53.516;49.424;2022-09-17T17:21:18;15.44;100.43
67547;HTU21D;54381;53.516;49.424;2022-09-17T17:23:46;15.47;100.64
67547;HTU21D;54381;53.516;49.424;2022-09-17T17:26:14;15.48;100.70
67547;HTU21D;54381;53.516;49.424;2022-09-17T17:28:40;15.47;100.77
67547;HTU21D;54381;53.516;49.424;2022-09-17T17:31:06;15.47;100.76
67547;HTU21D;54381;53.516;49.424;2022-09-17T17:33:33;15.46;100.67
67547;HTU21D;54381;53.516;49.424;2022-09-17T17:35:59;15.43;100.64
67547;HTU21D;54381;53.516;49.424;2022-09-17T17:38:26;15.44;100.66
67547;HTU21D;54381;53.516;49.424;2022-09-17T17:41:07;15.44;100.76
67547;HTU21D;54381;53.516;49.424;2022-09-17T17:43:33;15.44;100.89
67547;HTU21D;54381;53.516;49.424;2022-09-17T17:46:00;15.41;100.96
67547;HTU21D;54381;53.516;49.424;2022-09-17T17:48:27;15.39;100.94
67547;HTU21D;54381;53.516;49.424;2022-09-17T17:50:53;15.39;101.03
67547;HTU21D;54381;53.516;49.424;2022-09-17T17:53:19;15.39;101.11
67547;HTU21D;54381;53.516;49.424;2022-09-17T17:56:01;15.39;101.27
67547;HTU21D;54381;53.516;49.424;2022-09-17T17:58:28;15.40;101.38
67547;HTU21D;54381;53.516;49.424;2022-09-17T18:00:55;15.38;101.35
67547;HTU21D;54381;53.516;49.424;2022-09-17T18:03:21;15.37;101.28
67547;HTU21D;54381;53.516;49.424;2022-09-17T18:05:52;15.36;101.37
67547;HTU21D;54381;53.516;49.424;2022-09-17T18:08:25;15.36;101.53
67547;HTU21D;54381;53.516;49.424;2022-09-17T18:10:57;15.34;101.59
67547;HTU21D;54381;53.516;49.424;2022-09-17T18:13:29;15.36;101.70
67547;HTU21D;54381;53.516;49.424;2022-09-17T18:15:58;15.33;101.76
67547;HTU21D;54381;53.516;49.424;2022-09-17T18:18:32;15.32;101.72
67547;HTU21D;54381;53.516;49.424;2022-09-17T18:21:01;15.29;101.68
67547;HTU21D;54381;53.516;49.424;2022-09-17T18:23:28;15.28;101.73
67547;HTU21D;54381;53.516;49.424;2022-09-17T18:25:56;15.30;101.90
67547;HTU21D;54381;53.516;49.424;2022-09-17T18:28:22;15.29;102.01